createdAt,value
2023-07-21T00:00:15.453Z,15.19
2023-07-21T00:02:44.521Z,15.13
2023-07-21T00:05:17.228Z,15.20
2023-07-21T00:07:49.225Z,15.20
2023-07-21T00:10:23.180Z,15.16
2023-07-21T00:12:52.132Z,15.12
2023-07-21T00:15:19.841Z,15.08
2023-07-21T00:17:48.473Z,14.98
2023-07-21T00:20:23.450Z,14.96
2023-07-21T00:22:50.409Z,15.00
2023-07-21T00:25:17.065Z,14.94
2023-07-21T00:27:44.758Z,14.85
2023-07-21T00:30:14.572Z,14.80
2023-07-21T00:32:43.548Z,14.70
2023-07-21T00:35:11.278Z,14.70
2023-07-21T00:37:42.972Z,14.66
2023-07-21T00:40:30.359Z,14.61
2023-07-21T00:42:58.989Z,14.62
2023-07-21T00:45:28.707Z,14.60
2023-07-21T00:47:57.882Z,14.65
2023-07-21T00:50:26.996Z,14.70
2023-07-21T00:52:53.700Z,14.68
2023-07-21T00:55:20.772Z,14.62
2023-07-21T00:57:49.965Z,14.62
2023-07-21T01:00:19.175Z,14.60
2023-07-21T01:02:50.777Z,14.53
2023-07-21T01:05:25.012Z,14.46
2023-07-21T01:07:52.114Z,14.39
2023-07-21T01:10:22.893Z,14.36
2023-07-21T01:12:49.624Z,14.29
2023-07-21T01:15:17.000Z,14.22
2023-07-21T01:17:44.069Z,14.16
2023-07-21T01:20:16.085Z,14.14
2023-07-21T01:22:54.109Z,14.14
2023-07-21T01:25:22.760Z,14.06
2023-07-21T01:27:51.761Z,14.05
2023-07-21T01:30:26.368Z,14.06
2023-07-21T01:32:56.943Z,14.03
2023-07-21T01:35:24.653Z,13.94
2023-07-21T01:37:51.313Z,13.91
2023-07-21T01:40:18.464Z,13.96
2023-07-21T01:42:47.277Z,14.02
2023-07-21T01:45:16.630Z,14.01
2023-07-21T01:47:47.299Z,13.93
2023-07-21T01:50:20.325Z,13.85
2023-07-21T01:52:50.225Z,13.75
2023-07-21T01:55:34.081Z,13.62
2023-07-21T01:58:04.738Z,13.47
2023-07-21T02:00:49.722Z,13.49
2023-07-21T02:03:18.617Z,13.44
2023-07-21T02:05:45.306Z,13.50
2023-07-21T02:08:14.258Z,13.53
2023-07-21T02:10:45.634Z,13.55
2023-07-21T02:13:12.840Z,13.54
2023-07-21T02:15:39.581Z,13.52
2023-07-21T02:18:08.441Z,13.46
2023-07-21T02:20:37.480Z,13.36
2023-07-21T02:23:04.028Z,13.30
2023-07-21T02:25:32.911Z,13.25
2023-07-21T02:28:01.689Z,13.23
2023-07-21T02:30:33.052Z,13.21
2023-07-21T02:33:01.939Z,13.20
2023-07-21T02:35:31.296Z,13.11
2023-07-21T02:38:02.945Z,13.00
2023-07-21T02:40:33.083Z,12.95
2023-07-21T02:42:59.710Z,12.94
2023-07-21T02:45:28.398Z,12.86
2023-07-21T02:47:57.259Z,12.88
2023-07-21T02:50:25.339Z,12.85
2023-07-21T02:52:56.003Z,12.81
2023-07-21T02:55:22.679Z,12.73
2023-07-21T02:57:53.125Z,12.78
2023-07-21T03:00:21.896Z,12.81
2023-07-21T03:02:51.420Z,12.82
2023-07-21T03:05:23.682Z,12.82
2023-07-21T03:07:50.296Z,12.84
2023-07-21T03:10:19.286Z,12.84
2023-07-21T03:12:48.689Z,12.78
2023-07-21T03:15:16.222Z,12.70
2023-07-21T03:17:44.975Z,12.62
2023-07-21T03:20:16.744Z,12.56
2023-07-21T03:22:44.362Z,12.48
2023-07-21T03:25:12.259Z,12.44
2023-07-21T03:27:41.604Z,12.42
2023-07-21T03:30:10.950Z,12.44
2023-07-21T03:32:38.309Z,12.46
2023-07-21T03:35:06.189Z,12.42
2023-07-21T03:37:35.875Z,12.36
2023-07-21T03:40:16.173Z,12.32
2023-07-21T03:42:46.164Z,12.31
2023-07-21T03:45:14.767Z,12.28
2023-07-21T03:47:41.391Z,12.31
2023-07-21T03:50:09.460Z,12.36
2023-07-21T03:52:37.230Z,12.46
2023-07-21T03:55:04.732Z,12.53
2023-07-21T03:57:41.207Z,12.57
2023-07-21T04:00:09.003Z,12.56
2023-07-21T04:02:35.982Z,12.58
2023-07-21T04:05:04.805Z,12.57
2023-07-21T04:07:32.573Z,12.60
2023-07-21T04:10:03.911Z,12.67
2023-07-21T04:12:30.454Z,12.72
2023-07-21T04:14:56.985Z,12.74
2023-07-21T04:17:25.810Z,12.72
2023-07-21T04:19:54.740Z,12.74
2023-07-21T04:22:24.105Z,12.76
2023-07-21T04:24:50.742Z,12.73
2023-07-21T04:27:17.429Z,12.74
2023-07-21T04:29:49.033Z,12.77
2023-07-21T04:32:15.605Z,12.79
2023-07-21T04:34:44.463Z,12.74
2023-07-21T04:37:11.034Z,12.75
2023-07-21T04:39:37.689Z,12.80
2023-07-21T04:42:07.145Z,12.81
2023-07-21T04:44:33.843Z,12.85
2023-07-21T04:47:00.448Z,12.84
2023-07-21T04:49:26.948Z,12.95
2023-07-21T04:51:53.458Z,13.04
2023-07-21T04:54:24.750Z,13.07
2023-07-21T04:56:53.741Z,13.04
2023-07-21T04:59:27.393Z,13.15
2023-07-21T05:01:58.154Z,13.41
2023-07-21T05:04:24.719Z,13.58
2023-07-21T05:06:51.402Z,13.68
2023-07-21T05:09:21.080Z,13.93
2023-07-21T05:11:47.662Z,14.19
2023-07-21T05:14:19.057Z,15.09
2023-07-21T05:16:45.733Z,16.31
2023-07-21T05:19:12.234Z,17.57
2023-07-21T05:21:38.862Z,18.11
2023-07-21T05:24:05.566Z,17.90
2023-07-21T05:26:34.502Z,17.78
2023-07-21T05:29:00.999Z,17.90
2023-07-21T05:31:29.907Z,17.88
2023-07-21T05:33:58.882Z,17.77
2023-07-21T05:36:26.430Z,17.72
2023-07-21T05:38:53.336Z,18.31
2023-07-21T05:41:23.478Z,18.65
2023-07-21T05:43:49.973Z,18.95
2023-07-21T05:46:19.081Z,18.76
2023-07-21T05:48:45.731Z,18.75
2023-07-21T05:51:13.567Z,19.04
2023-07-21T05:53:43.156Z,18.94
2023-07-21T05:56:09.723Z,18.84
2023-07-21T05:58:38.380Z,19.09
2023-07-21T06:01:05.260Z,19.49
2023-07-21T06:03:32.223Z,19.53
2023-07-21T06:05:59.058Z,19.19
2023-07-21T06:08:28.213Z,19.09
2023-07-21T06:11:00.685Z,19.45
2023-07-21T06:13:30.958Z,19.70
2023-07-21T06:15:59.760Z,20.20
2023-07-21T06:18:26.339Z,20.21
2023-07-21T06:20:55.414Z,21.18
2023-07-21T06:23:21.967Z,21.82
2023-07-21T06:25:49.158Z,22.27
2023-07-21T06:28:15.912Z,22.89
2023-07-21T06:30:42.524Z,22.54
2023-07-21T06:33:10.092Z,22.23
2023-07-21T06:35:42.683Z,21.76
2023-07-21T06:38:13.965Z,21.46
2023-07-21T06:40:40.529Z,21.41
2023-07-21T06:43:07.080Z,21.74
2023-07-21T06:45:34.776Z,21.91
2023-07-21T06:48:04.491Z,22.15
2023-07-21T06:50:30.989Z,22.94
2023-07-21T06:52:57.540Z,23.44
2023-07-21T06:55:24.050Z,23.45
2023-07-21T06:57:50.710Z,23.73
2023-07-21T07:00:17.455Z,24.74
2023-07-21T07:02:50.392Z,24.98
2023-07-21T07:05:20.307Z,24.17
2023-07-21T07:07:47.070Z,23.06
2023-07-21T07:10:13.631Z,22.60
2023-07-21T07:12:42.501Z,21.74
2023-07-21T07:15:10.318Z,21.51
2023-07-21T07:17:39.219Z,21.41
2023-07-21T07:20:08.413Z,21.31
2023-07-21T07:22:37.228Z,20.83
2023-07-21T07:25:06.786Z,20.38
2023-07-21T07:27:33.370Z,20.22
2023-07-21T07:29:59.858Z,20.12
2023-07-21T07:32:26.503Z,19.95
2023-07-21T07:34:59.867Z,19.69
2023-07-21T07:37:27.979Z,19.33
2023-07-21T07:39:54.528Z,19.42
2023-07-21T07:42:23.727Z,19.47
2023-07-21T07:44:52.260Z,19.43
2023-07-21T07:47:21.104Z,19.53
2023-07-21T07:49:47.805Z,19.55
2023-07-21T07:52:19.759Z,19.45
2023-07-21T07:54:46.360Z,19.48
2023-07-21T07:57:15.768Z,19.52
2023-07-21T07:59:48.276Z,19.63
2023-07-21T08:02:14.844Z,19.59
2023-07-21T08:04:41.468Z,19.60
2023-07-21T08:07:10.977Z,19.54
2023-07-21T08:09:39.772Z,19.56
2023-07-21T08:12:06.612Z,19.60
2023-07-21T08:14:33.258Z,19.94
2023-07-21T08:17:03.703Z,20.18
2023-07-21T08:19:35.641Z,20.32
2023-07-21T08:22:06.253Z,20.37
2023-07-21T08:24:33.637Z,20.59
2023-07-21T08:27:00.510Z,20.54
2023-07-21T08:29:27.369Z,20.52
2023-07-21T08:31:56.471Z,20.46
2023-07-21T08:34:23.050Z,20.77
2023-07-21T08:36:54.578Z,21.24
2023-07-21T08:39:25.298Z,21.31
2023-07-21T08:41:54.214Z,21.07
2023-07-21T08:44:23.784Z,21.48
2023-07-21T08:46:52.896Z,21.72
2023-07-21T08:49:19.574Z,21.81
2023-07-21T08:51:46.388Z,21.88
2023-07-21T08:54:15.803Z,21.60
2023-07-21T08:56:44.585Z,21.41
2023-07-21T08:59:15.943Z,21.53
2023-07-21T09:01:46.758Z,21.75
2023-07-21T09:04:20.687Z,21.64
2023-07-21T09:07:06.760Z,21.34
2023-07-21T09:09:33.608Z,21.41
2023-07-21T09:12:08.295Z,21.45
2023-07-21T09:14:41.833Z,21.47
2023-07-21T09:17:12.697Z,21.76
2023-07-21T09:19:45.170Z,22.20
2023-07-21T09:22:14.968Z,22.44
2023-07-21T09:24:52.768Z,22.73
2023-07-21T09:27:23.367Z,23.02
2023-07-21T09:29:52.371Z,23.31
2023-07-21T09:32:22.587Z,23.45
2023-07-21T09:35:07.983Z,23.55
2023-07-21T09:37:35.659Z,23.88
2023-07-21T09:40:11.228Z,24.23
2023-07-21T09:42:39.483Z,24.14
2023-07-21T09:45:09.859Z,24.10
2023-07-21T09:47:45.065Z,24.08
2023-07-21T09:50:16.361Z,23.97
2023-07-21T09:52:47.866Z,23.49
2023-07-21T09:55:22.529Z,23.46
2023-07-21T09:57:53.065Z,23.43
2023-07-21T10:00:28.120Z,23.74
2023-07-21T10:02:57.586Z,23.63
2023-07-21T10:05:24.360Z,23.77
2023-07-21T10:07:51.794Z,23.70
2023-07-21T10:10:19.655Z,23.36
2023-07-21T10:12:47.786Z,23.30
2023-07-21T10:15:34.569Z,23.15
2023-07-21T10:18:02.741Z,23.42
2023-07-21T10:20:44.452Z,23.61
2023-07-21T10:23:15.645Z,23.69
2023-07-21T10:26:02.397Z,24.07
2023-07-21T10:28:31.640Z,24.25
2023-07-21T10:31:26.117Z,24.34
2023-07-21T10:34:15.454Z,23.29
2023-07-21T10:36:54.211Z,22.98
2023-07-21T10:39:24.383Z,23.14
2023-07-21T10:41:59.642Z,23.36
2023-07-21T10:44:39.492Z,23.75
2023-07-21T10:47:20.561Z,24.14
2023-07-21T10:49:53.487Z,24.34
2023-07-21T10:52:20.781Z,24.56
2023-07-21T10:54:51.979Z,24.55
2023-07-21T10:57:18.559Z,24.00
2023-07-21T10:59:47.506Z,23.63
2023-07-21T11:02:27.541Z,23.11
2023-07-21T11:04:54.208Z,22.91
2023-07-21T11:07:28.637Z,22.81
2023-07-21T11:10:01.451Z,22.75
2023-07-21T11:12:29.960Z,23.32
2023-07-21T11:14:57.154Z,23.88
2023-07-21T11:17:26.034Z,24.00
2023-07-21T11:20:05.790Z,24.35
2023-07-21T11:22:39.326Z,24.73
2023-07-21T11:25:12.095Z,24.14
2023-07-21T11:27:46.500Z,23.97
2023-07-21T11:30:19.937Z,23.37
2023-07-21T11:32:49.482Z,22.54
2023-07-21T11:35:16.193Z,21.95
2023-07-21T11:37:45.982Z,21.70
2023-07-21T11:40:20.761Z,21.53
2023-07-21T11:42:49.314Z,21.41
2023-07-21T11:45:35.530Z,21.15
2023-07-21T11:48:14.066Z,20.96
2023-07-21T11:50:53.619Z,20.47
2023-07-21T11:53:24.936Z,20.17
2023-07-21T11:55:54.670Z,20.02
2023-07-21T11:58:22.509Z,19.80
2023-07-21T12:00:50.408Z,19.60
2023-07-21T12:03:19.649Z,19.41
2023-07-21T12:05:49.050Z,19.24
2023-07-21T12:08:15.552Z,19.25
2023-07-21T12:10:44.545Z,19.22
2023-07-21T12:13:15.941Z,19.14
2023-07-21T12:15:46.759Z,19.33
2023-07-21T12:18:16.147Z,19.69
2023-07-21T12:20:42.835Z,20.12
2023-07-21T12:23:12.001Z,20.67
2023-07-21T12:25:39.680Z,21.13
2023-07-21T12:28:08.458Z,22.02
2023-07-21T12:30:39.618Z,22.35
2023-07-21T12:33:08.662Z,22.55
2023-07-21T12:35:35.271Z,22.29
2023-07-21T12:38:04.090Z,21.98
2023-07-21T12:40:31.039Z,21.57
2023-07-21T12:43:00.890Z,21.08
2023-07-21T12:45:28.714Z,20.89
2023-07-21T12:47:58.377Z,20.67
2023-07-21T12:50:26.524Z,20.39
2023-07-21T12:52:55.634Z,20.27
2023-07-21T12:55:22.127Z,20.02
2023-07-21T12:57:53.409Z,19.88
2023-07-21T13:00:19.951Z,19.88
2023-07-21T13:02:46.962Z,19.77
2023-07-21T13:05:15.805Z,19.70
2023-07-21T13:07:45.609Z,19.66
2023-07-21T13:10:15.616Z,19.78
2023-07-21T13:12:44.470Z,19.85
2023-07-21T13:15:11.086Z,19.78
2023-07-21T13:17:37.820Z,19.72
2023-07-21T13:20:14.898Z,19.76
2023-07-21T13:22:45.076Z,19.56
2023-07-21T13:25:11.923Z,19.41
2023-07-21T13:27:41.056Z,19.31
2023-07-21T13:30:12.115Z,19.43
2023-07-21T13:32:43.593Z,19.42
2023-07-21T13:35:10.341Z,19.51
2023-07-21T13:37:36.996Z,19.52
2023-07-21T13:40:07.243Z,19.57
2023-07-21T13:42:38.684Z,19.72
2023-07-21T13:45:05.707Z,19.71
2023-07-21T13:47:34.893Z,19.88
2023-07-21T13:50:01.627Z,19.94
2023-07-21T13:52:28.950Z,20.08
2023-07-21T13:54:55.562Z,20.18
2023-07-21T13:57:26.544Z,20.44
2023-07-21T13:59:54.269Z,20.65
2023-07-21T14:02:20.829Z,20.45
2023-07-21T14:04:48.360Z,20.50
2023-07-21T14:07:14.885Z,20.68
2023-07-21T14:09:41.493Z,20.85
2023-07-21T14:12:08.260Z,21.23
2023-07-21T14:14:34.803Z,21.23
2023-07-21T14:17:01.494Z,20.99
2023-07-21T14:19:28.252Z,20.42
2023-07-21T14:21:54.825Z,20.21
2023-07-21T14:24:21.460Z,19.96
2023-07-21T14:26:51.447Z,19.74
2023-07-21T14:29:22.504Z,19.70
2023-07-21T14:31:51.292Z,19.60
2023-07-21T14:34:18.040Z,19.54
2023-07-21T14:36:46.900Z,19.52
2023-07-21T14:39:19.298Z,19.58
2023-07-21T14:41:46.263Z,19.69
2023-07-21T14:44:16.251Z,19.84
2023-07-21T14:46:45.168Z,20.06
2023-07-21T14:49:13.874Z,20.40
2023-07-21T14:51:40.714Z,20.60
2023-07-21T14:54:07.724Z,20.90
2023-07-21T14:56:34.321Z,21.14
2023-07-21T14:59:02.588Z,21.27
2023-07-21T15:01:31.276Z,21.33
2023-07-21T15:03:58.714Z,20.90
2023-07-21T15:06:25.478Z,20.61
2023-07-21T15:08:54.784Z,20.84
2023-07-21T15:11:21.389Z,21.04
2023-07-21T15:13:52.341Z,20.84
2023-07-21T15:16:18.943Z,20.63
2023-07-21T15:18:45.562Z,20.68
2023-07-21T15:21:12.272Z,20.64
2023-07-21T15:23:38.827Z,20.55
2023-07-21T15:26:05.493Z,20.43
2023-07-21T15:28:31.996Z,20.43
2023-07-21T15:31:06.032Z,20.45
2023-07-21T15:33:32.647Z,20.35
2023-07-21T15:36:03.690Z,20.16
2023-07-21T15:38:30.696Z,20.34
2023-07-21T15:41:00.558Z,20.52
2023-07-21T15:43:29.228Z,20.65
2023-07-21T15:45:58.746Z,20.60
2023-07-21T15:48:29.555Z,20.64
2023-07-21T15:50:58.337Z,20.66
2023-07-21T15:53:24.974Z,20.58
2023-07-21T15:55:54.286Z,20.62
2023-07-21T15:58:20.838Z,20.64
2023-07-21T16:00:59.241Z,20.46
2023-07-21T16:03:29.203Z,20.21
2023-07-21T16:05:56.476Z,20.10
2023-07-21T16:08:23.765Z,19.98
2023-07-21T16:10:52.539Z,20.03
2023-07-21T16:13:21.944Z,20.04
2023-07-21T16:15:53.163Z,19.84
2023-07-21T16:18:23.084Z,19.68
2023-07-21T16:20:49.560Z,19.60
2023-07-21T16:23:16.102Z,19.58
2023-07-21T16:25:45.338Z,19.61
2023-07-21T16:28:11.880Z,19.82
2023-07-21T16:30:40.030Z,19.87
2023-07-21T16:33:06.606Z,19.83
2023-07-21T16:35:33.875Z,19.54
2023-07-21T16:38:00.860Z,19.40
2023-07-21T16:40:28.011Z,19.31
2023-07-21T16:42:54.934Z,19.17
2023-07-21T16:45:21.633Z,19.15
2023-07-21T16:47:50.393Z,19.35
2023-07-21T16:50:16.942Z,19.54
2023-07-21T16:52:43.524Z,19.58
2023-07-21T16:55:10.372Z,19.68
2023-07-21T16:57:39.333Z,19.51
2023-07-21T17:00:13.355Z,19.24
2023-07-21T17:02:42.821Z,19.11
2023-07-21T17:05:28.989Z,19.11
2023-07-21T17:07:58.814Z,19.02
2023-07-21T17:10:27.745Z,19.12
2023-07-21T17:12:57.328Z,19.22
2023-07-21T17:15:25.960Z,19.32
2023-07-21T17:17:54.966Z,19.29
2023-07-21T17:20:24.083Z,19.15
2023-07-21T17:22:50.593Z,19.04
2023-07-21T17:25:17.891Z,18.96
2023-07-21T17:27:45.167Z,18.86
2023-07-21T17:30:12.240Z,18.75
2023-07-21T17:32:41.054Z,18.66
2023-07-21T17:35:08.723Z,18.59
2023-07-21T17:37:39.625Z,18.56
2023-07-21T17:40:11.321Z,18.38
2023-07-21T17:42:40.999Z,18.31
2023-07-21T17:45:08.081Z,18.30
2023-07-21T17:47:37.308Z,18.35
2023-07-21T17:50:04.715Z,18.36
2023-07-21T17:52:32.653Z,18.35
2023-07-21T17:55:01.653Z,18.32
2023-07-21T17:57:31.014Z,18.30
2023-07-21T17:59:57.630Z,18.26
2023-07-21T18:02:24.462Z,18.27
2023-07-21T18:04:51.075Z,18.25
2023-07-21T18:07:17.569Z,18.18
2023-07-21T18:09:44.178Z,18.08
2023-07-21T18:12:13.290Z,17.98
2023-07-21T18:14:42.339Z,17.91
2023-07-21T18:17:08.835Z,17.82
2023-07-21T18:19:38.013Z,17.75
2023-07-21T18:22:05.140Z,17.70
2023-07-21T18:24:31.733Z,17.64
2023-07-21T18:26:58.912Z,17.55
2023-07-21T18:29:28.254Z,17.45
2023-07-21T18:31:54.956Z,17.38
2023-07-21T18:34:22.523Z,17.29
2023-07-21T18:36:49.281Z,17.24
2023-07-21T18:39:16.664Z,17.19
2023-07-21T18:41:48.028Z,17.17
2023-07-21T18:44:14.590Z,17.11
2023-07-21T18:46:41.160Z,17.09
2023-07-21T18:49:12.247Z,17.09
2023-07-21T18:51:38.758Z,17.03
2023-07-21T18:54:07.689Z,16.98
2023-07-21T18:56:36.500Z,16.91
2023-07-21T18:59:05.275Z,16.90
2023-07-21T19:01:34.472Z,16.83
2023-07-21T19:04:02.255Z,16.78
2023-07-21T19:06:31.355Z,16.75
2023-07-21T19:09:00.468Z,16.68
2023-07-21T19:11:32.132Z,16.63
2023-07-21T19:14:01.550Z,16.57
2023-07-21T19:16:30.806Z,16.52
2023-07-21T19:18:59.953Z,16.47
2023-07-21T19:21:30.114Z,16.44
2023-07-21T19:24:01.217Z,16.41
2023-07-21T19:26:35.160Z,16.40
2023-07-21T19:29:02.016Z,16.42
2023-07-21T19:31:34.868Z,16.42
2023-07-21T19:34:07.024Z,16.43
2023-07-21T19:36:33.701Z,16.46
2023-07-21T19:39:05.068Z,16.47
2023-07-21T19:41:33.800Z,16.49
2023-07-21T19:44:00.684Z,16.48
2023-07-21T19:46:32.636Z,16.48
2023-07-21T19:48:59.968Z,16.50
2023-07-21T19:51:28.882Z,16.54
2023-07-21T19:53:58.530Z,16.54
2023-07-21T19:56:25.165Z,16.52
2023-07-21T19:58:53.065Z,16.52
2023-07-21T20:01:27.063Z,16.55
2023-07-21T20:03:56.238Z,16.54
2023-07-21T20:06:23.268Z,16.53
2023-07-21T20:08:49.946Z,16.51
2023-07-21T20:11:16.443Z,16.52
2023-07-21T20:13:42.963Z,16.44
2023-07-21T20:16:09.518Z,16.42
2023-07-21T20:18:36.540Z,16.34
2023-07-21T20:21:10.354Z,16.27
2023-07-21T20:23:36.912Z,16.09
2023-07-21T20:26:09.434Z,16.00
2023-07-21T20:28:38.519Z,15.93
2023-07-21T20:31:05.887Z,15.86
2023-07-21T20:33:34.827Z,15.77
2023-07-21T20:36:05.686Z,15.66
2023-07-21T20:38:32.710Z,15.58
2023-07-21T20:41:08.266Z,15.48
2023-07-21T20:43:39.397Z,15.43
2023-07-21T20:46:05.953Z,15.34
2023-07-21T20:48:34.061Z,15.23
2023-07-21T20:51:03.134Z,15.16
2023-07-21T20:53:30.272Z,15.08
2023-07-21T20:56:00.707Z,15.05
2023-07-21T20:58:29.545Z,14.99
2023-07-21T21:01:02.377Z,14.93
2023-07-21T21:03:31.325Z,14.88
2023-07-21T21:06:07.257Z,14.82
2023-07-21T21:08:36.130Z,14.73
2023-07-21T21:11:03.188Z,14.67
2023-07-21T21:13:29.842Z,14.60
2023-07-21T21:16:02.901Z,14.60
2023-07-21T21:18:32.037Z,14.61
2023-07-21T21:20:58.675Z,14.58
2023-07-21T21:23:27.264Z,14.59
2023-07-21T21:25:57.607Z,14.54
2023-07-21T21:28:24.833Z,14.55
2023-07-21T21:30:58.879Z,14.54
2023-07-21T21:33:26.238Z,14.53
2023-07-21T21:35:56.310Z,14.54
2023-07-21T21:38:25.333Z,14.48
2023-07-21T21:40:54.995Z,14.42
2023-07-21T21:43:23.741Z,14.34
2023-07-21T21:45:51.878Z,14.29
2023-07-21T21:48:20.925Z,14.27
2023-07-21T21:50:48.693Z,14.16
2023-07-21T21:53:15.191Z,14.09
2023-07-21T21:55:43.991Z,14.11
2023-07-21T21:58:10.831Z,14.08
2023-07-21T22:00:41.750Z,14.00
2023-07-21T22:03:12.751Z,13.88
2023-07-21T22:05:39.491Z,13.78
2023-07-21T22:08:06.066Z,13.75
2023-07-21T22:10:32.566Z,13.78
2023-07-21T22:13:02.291Z,13.70
2023-07-21T22:15:28.833Z,13.67
2023-07-21T22:17:59.841Z,13.66
2023-07-21T22:20:28.109Z,13.66
2023-07-21T22:22:55.017Z,13.62
2023-07-21T22:25:32.235Z,13.63
2023-07-21T22:28:04.590Z,13.62
2023-07-21T22:30:34.370Z,13.63
2023-07-21T22:33:02.291Z,13.59
2023-07-21T22:35:29.739Z,13.55
2023-07-21T22:38:03.674Z,13.56
2023-07-21T22:40:36.638Z,13.54
2023-07-21T22:43:03.658Z,13.47
2023-07-21T22:45:32.782Z,13.32
2023-07-21T22:48:01.481Z,13.28
2023-07-21T22:50:28.105Z,13.23
2023-07-21T22:52:59.568Z,13.18
2023-07-21T22:55:28.505Z,13.09
2023-07-21T22:57:57.389Z,13.06
2023-07-21T23:00:26.383Z,13.05
2023-07-21T23:02:55.580Z,13.02
2023-07-21T23:05:22.702Z,13.00
2023-07-21T23:07:51.888Z,12.92
2023-07-21T23:10:18.876Z,12.92
2023-07-21T23:12:46.975Z,12.90
2023-07-21T23:15:13.522Z,12.92
2023-07-21T23:17:42.904Z,12.94
2023-07-21T23:20:12.265Z,12.93
2023-07-21T23:22:38.773Z,12.90
2023-07-21T23:25:15.249Z,12.93
2023-07-21T23:27:44.484Z,12.94
2023-07-21T23:30:12.896Z,12.92
2023-07-21T23:32:39.621Z,12.90
2023-07-21T23:35:07.497Z,12.93
2023-07-21T23:37:33.999Z,12.95
2023-07-21T23:40:07.194Z,12.94
2023-07-21T23:42:33.690Z,12.86
2023-07-21T23:45:00.942Z,12.85
2023-07-21T23:47:28.285Z,12.85
2023-07-21T23:49:54.844Z,12.77
2023-07-21T23:52:21.326Z,12.69
2023-07-21T23:54:47.869Z,12.64
2023-07-21T23:57:16.909Z,12.67
2023-07-21T23:59:48.256Z,12.68
